Clarissa, Minnesota
Current Conditions -  °F | °C
As of 12:55 PM on Tuesday 27 Jan 2015 (Local Time) from K14Y Reporting Station
Overcast Overcast  
Wind Chill: 22°   Ceiling: 800
Heat Index: 30°   Visibility: 10mi
Dew Point: 28°   Wind: 9mph
Humidity: 93%   Direction: 140°SE
Pressure: 30.1"   Gusts: NA
Location:  46.13°N, 94.95°W
Report Text: K14Y 271855Z AUTO 14008KT 10SM OVC008 M01/M02 A3010 RMK AO2
Loading
Personal Weather Stations






























Interactive Weather Map New forecast layout! Learn more

10-Day Weather Forecast

Advertisements
Track Severe Weather on mobile